Terminal Aerodrome Forecast
Issued by NWS Albany, NY

Home | Current Version | Previous Version | Text Only | Print | Product List | Glossary On
Versions: 1 2 3 4 5 6 7 8 9 10 11 12 13
000
FTUS41 KALY 221100
TAFPOU
TAF
KPOU 221120Z 2212/2312 19004KT P6SM SKC
     FM221300 21004KT P6SM SCT250
     FM221700 22008KT P6SM BKN250
     FM222200 22007KT P6SM SCT050 OVC100
     FM230400 VRB04KT P6SM -RAPL OVC050
     FM230800 VRB03KT P6SM -RA OVC045=

USA.gov is the U.S. government's official web portal to all federal, state and local government web resources and services.